Time;durP1;ratioP1;P1;durP2;ratioP2;P2;SDS_P1;SDS_P2;PMS_P1;PMS_P2;Temp;Humidity;BMP_temperature;BMP_pressure;BME280_temperature;BME280_humidity;BME280_pressure;Samples;Min_cycle;Max_cycle;Signal;HPM_P1;HPM_P2
2022/05/21 00:00:36;;;;;;;9.20;5.30;;;;;;;9.63;75.28;97597.95;109891;1253;69713;-70
2022/05/21 00:03:13;;;;;;;6.40;5.10;;;;;;;9.62;73.19;97596.25;109900;1250;67955;-73
2022/05/21 00:05:51;;;;;;;5.40;4.40;;;;;;;9.58;72.18;97595.11;109900;1250;69270;-72
2022/05/21 00:08:28;;;;;;;5.50;4.30;;;;;;;9.52;71.51;97594.64;110058;1250;58853;-73
2022/05/21 00:11:12;;;;;;;8.90;6.60;;;;;;;9.47;76.31;97600.23;109793;1253;58873;-76
2022/05/21 00:13:50;;;;;;;8.50;5.70;;;;;;;9.42;74.24;97604.70;109849;1250;70319;-73
2022/05/21 00:16:29;;;;;;;6.50;5.50;;;;;;;9.37;71.53;97605.56;109971;1250;67665;-68
2022/05/21 00:19:13;;;;;;;6.20;4.60;;;;;;;9.30;72.35;97608.48;110010;1250;68727;-69
2022/05/21 00:21:54;;;;;;;8.00;6.30;;;;;;;9.22;75.70;97606.88;109865;1250;58907;-68
2022/05/21 00:24:37;;;;;;;8.90;5.70;;;;;;;9.15;77.01;97604.36;110011;1250;58917;-69
2022/05/21 00:27:14;;;;;;;8.20;6.60;;;;;;;9.10;76.68;97606.37;109980;1250;71600;-68
2022/05/21 00:29:55;;;;;;;8.10;6.30;;;;;;;9.06;78.02;97606.14;110050;1250;68219;-68
2022/05/21 00:32:32;;;;;;;8.40;6.70;;;;;;;9.01;77.40;97608.52;109965;1250;69464;-69
2022/05/21 00:35:17;;;;;;;6.20;5.30;;;;;;;8.97;77.37;97606.35;109969;1250;58969;-69
2022/05/21 00:37:58;;;;;;;6.80;5.10;;;;;;;8.94;77.31;97608.13;110027;1250;58863;-68
2022/05/21 00:40:38;;;;;;;8.00;5.80;;;;;;;8.92;77.77;97604.39;110043;1250;70566;-69
2022/05/21 00:43:38;;;;;;;10.50;6.20;;;;;;;8.91;76.28;97595.98;109881;1250;67713;-69
2022/05/21 00:46:31;;;;;;;7.10;5.50;;;;;;;8.91;75.51;97589.52;110035;1250;68643;-68
2022/05/21 00:49:18;;;;;;;7.60;5.50;;;;;;;8.93;74.00;97585.77;109888;1250;58897;-68
2022/05/21 00:52:14;;;;;;;9.20;7.70;;;;;;;8.93;74.25;97578.13;110013;1250;58910;-69
2022/05/21 00:55:08;;;;;;;11.10;6.90;;;;;;;8.89;78.34;97581.31;110008;1250;69996;-71
2022/05/21 00:59:47;;;;;;;9.40;7.20;;;;;;;8.84;79.56;97582.85;110154;1250;67817;-69
2022/05/21 01:00:51;;;;;;;8.60;6.90;;;;;;;8.82;79.04;97585.77;110013;1250;68441;-68
2022/05/21 01:03:35;;;;;;;9.20;6.50;;;;;;;8.81;75.50;97587.59;110012;1250;58830;-67
2022/05/21 01:06:17;;;;;;;8.80;6.30;;;;;;;8.78;75.03;97585.34;110034;1250;58881;-70
2022/05/21 01:08:57;;;;;;;10.90;6.80;;;;;;;8.74;74.80;97586.98;109856;1251;71179;-68
2022/05/21 01:11:38;;;;;;;9.40;6.90;;;;;;;8.66;75.18;97582.05;109943;1250;68125;-69
2022/05/21 01:14:20;;;;;;;8.80;6.90;;;;;;;8.59;75.01;97582.11;110018;1251;69233;-68
2022/05/21 01:17:01;;;;;;;6.20;5.00;;;;;;;8.54;74.71;97581.59;110044;1250;59398;-69
2022/05/21 01:20:02;;;;;;;7.00;5.80;;;;;;;8.51;78.15;97582.30;110035;1250;58846;-70
2022/05/21 01:22:46;;;;;;;9.50;7.10;;;;;;;8.49;79.90;97581.73;110028;1250;69942;-68
2022/05/21 01:25:26;;;;;;;9.40;5.90;;;;;;;8.48;79.12;97581.32;109995;1250;68471;-68
2022/05/21 01:28:07;;;;;;;14.40;6.70;;;;;;;8.48;76.25;97579.38;110081;1248;68717;-70
2022/05/21 01:30:52;;;;;;;7.50;5.30;;;;;;;8.50;76.78;97576.12;110054;1249;58909;-68
2022/05/21 01:33:33;;;;;;;7.70;5.90;;;;;;;8.52;78.06;97576.32;109861;1250;58850;-70
2022/05/21 01:36:17;;;;;;;9.10;6.90;;;;;;;8.52;79.67;97568.88;110082;1250;70620;-69
2022/05/21 01:38:55;;;;;;;7.30;6.60;;;;;;;8.52;79.91;97568.20;110161;1250;67882;-69
2022/05/21 01:41:37;;;;;;;7.70;6.00;;;;;;;8.53;80.49;97573.27;109928;1250;69259;-68
2022/05/21 01:47:12;;;;;;;7.20;5.50;;;;;;;8.55;79.95;97578.75;110091;1250;58809;-71
2022/05/21 01:49:54;;;;;;;7.50;5.10;;;;;;;8.56;79.05;97582.71;110087;1250;70845;-70
2022/05/21 01:52:31;;;;;;;7.10;4.90;;;;;;;8.56;78.86;97590.15;109992;1250;67432;-69
2022/05/21 01:55:10;;;;;;;6.40;5.30;;;;;;;8.58;80.12;97592.09;110110;1250;69409;-68
2022/05/21 01:57:47;;;;;;;8.80;5.80;;;;;;;8.59;79.15;97590.13;109980;1250;58884;-73
2022/05/21 02:00:27;;;;;;;6.60;5.40;;;;;;;8.57;75.99;97590.63;109980;1250;58926;-72
2022/05/21 02:03:04;;;;;;;8.60;7.10;;;;;;;8.54;79.15;97586.46;110137;1250;70590;-74
2022/05/21 02:05:44;;;;;;;11.00;8.60;;;;;;;8.48;79.72;97583.01;109986;1250;68550;-75
2022/05/21 02:08:21;;;;;;;7.40;6.10;;;;;;;8.43;80.40;97579.00;110067;1250;67642;-68
2022/05/21 02:10:57;;;;;;;9.70;5.90;;;;;;;8.38;77.09;97572.17;110112;1250;58960;-68
2022/05/21 02:13:44;;;;;;;9.30;6.10;;;;;;;8.35;76.10;97561.02;109941;1250;58924;-66
2022/05/21 02:16:24;;;;;;;7.40;6.00;;;;;;;8.30;76.89;97544.84;109972;1250;70744;-67
2022/05/21 02:19:04;;;;;;;7.90;6.60;;;;;;;8.24;77.88;97540.17;110128;1250;67830;-69
2022/05/21 02:21:44;;;;;;;8.90;6.20;;;;;;;8.18;81.48;97541.72;109952;1251;68477;-68
2022/05/21 02:24:21;;;;;;;8.50;6.70;;;;;;;8.15;81.28;97545.73;109948;1250;59694;-68
2022/05/21 02:27:00;;;;;;;7.20;5.70;;;;;;;8.08;81.78;97543.94;109931;1251;59691;-67
2022/05/21 02:29:47;;;;;;;8.30;5.50;;;;;;;8.03;82.58;97540.57;109763;1253;70048;-67
2022/05/21 02:32:24;;;;;;;6.60;5.90;;;;;;;8.01;81.93;97538.48;109898;1250;68597;-67
2022/05/21 02:35:06;;;;;;;7.20;5.40;;;;;;;8.01;81.69;97531.35;109982;1250;69407;-68
2022/05/21 02:40:39;;;;;;;8.30;5.60;;;;;;;8.06;81.72;97522.36;109925;1251;59720;-67
2022/05/21 02:43:29;;;;;;;10.30;5.70;;;;;;;8.08;83.03;97518.05;109806;1251;70784;-67
2022/05/21 02:46:09;;;;;;;6.80;5.40;;;;;;;8.10;82.66;97517.61;109910;1251;68598;-67
2022/05/21 02:48:48;;;;;;;7.90;5.40;;;;;;;8.11;80.70;97513.71;109963;1250;68630;-68
2022/05/21 02:51:31;;;;;;;8.50;5.90;;;;;;;8.13;82.38;97518.92;110031;1250;59780;-68
2022/05/21 02:54:18;;;;;;;8.40;6.30;;;;;;;8.15;82.56;97524.70;109973;1251;59703;-68
2022/05/21 02:56:59;;;;;;;9.00;6.40;;;;;;;8.15;81.18;97524.39;109964;1250;71970;-67
2022/05/21 02:59:38;;;;;;;8.80;6.20;;;;;;;8.15;80.98;97528.70;110023;1250;67847;-68
2022/05/21 03:02:14;;;;;;;7.20;5.50;;;;;;;8.18;80.58;97526.65;109981;1250;68503;-69
2022/05/21 03:04:53;;;;;;;8.10;5.90;;;;;;;8.23;80.28;97524.27;109955;1250;59656;-71
2022/05/21 03:07:47;;;;;;;10.40;6.20;;;;;;;8.26;79.49;97524.29;109898;1250;59697;-66
2022/05/21 03:10:31;;;;;;;7.50;6.10;;;;;;;8.25;80.18;97527.48;109915;1251;70820;-72
2022/05/21 03:13:10;;;;;;;7.10;5.60;;;;;;;8.13;80.26;97523.10;109824;1251;67813;-70
2022/05/21 03:15:47;;;;;;;5.40;4.70;;;;;;;8.09;81.49;97524.43;109955;1250;69485;-70
2022/05/21 03:18:24;;;;;;;10.00;6.10;;;;;;;8.10;80.91;97526.45;109945;1253;59739;-70
2022/05/21 03:21:08;;;;;;;7.70;6.20;;;;;;;8.13;81.48;97523.48;110017;1250;59666;-68
2022/05/21 03:23:51;;;;;;;5.80;5.10;;;;;;;8.17;82.08;97522.88;109816;1251;71564;-68
2022/05/21 03:26:32;;;;;;;9.30;6.30;;;;;;;8.24;82.11;97524.73;109928;1250;68726;-68
2022/05/21 03:29:08;;;;;;;6.20;4.90;;;;;;;8.35;82.74;97522.64;110068;1251;67834;-69
2022/05/21 03:31:47;;;;;;;9.10;6.20;;;;;;;8.44;81.27;97520.73;109904;1251;60029;-67
2022/05/21 03:34:32;;;;;;;7.10;5.30;;;;;;;8.51;81.18;97515.60;109990;1251;59639;-69
2022/05/21 03:37:10;;;;;;;7.80;5.20;;;;;;;8.55;79.71;97505.61;109871;1253;70644;-68
2022/05/21 03:39:55;;;;;;;8.40;5.40;;;;;;;8.61;79.76;97504.93;110075;1253;68638;-68
2022/05/21 03:42:31;;;;;;;8.00;5.90;;;;;;;8.66;79.35;97507.00;109871;1253;69463;-68
2022/05/21 03:45:10;;;;;;;6.40;5.50;;;;;;;8.72;81.07;97500.20;109916;1251;59818;-68
2022/05/21 03:47:51;;;;;;;7.10;5.10;;;;;;;8.79;79.68;97492.64;109923;1250;59726;-69
2022/05/21 03:50:32;;;;;;;8.70;5.70;;;;;;;8.87;79.53;97488.98;109980;1250;70462;-68
2022/05/21 03:53:09;;;;;;;;;;;;;;;8.94;80.12;97494.80;110010;1251;68702;-69
2022/05/21 03:55:59;;;;;;;7.60;5.20;;;;;;;9.00;79.85;97504.14;110041;1250;68604;-67
2022/05/21 03:58:40;;;;;;;;;;;;;;;9.06;80.48;97505.45;110112;1250;59729;-68
2022/05/21 04:01:20;;;;;;;;;;;;;;;9.14;80.45;97505.33;109894;1253;59756;-71
2022/05/21 04:04:01;;;;;;;8.60;5.20;;;;;;;9.25;80.42;97512.96;110079;1249;70764;-70
2022/05/21 04:06:38;;;;;;;6.70;4.50;;;;;;;9.36;79.90;97514.48;109981;1251;68454;-71
2022/05/21 04:09:18;;;;;;;7.60;6.60;;;;;;;9.49;79.32;97509.46;109995;1251;69489;-74
2022/05/21 04:11:57;;;;;;;9.50;6.20;;;;;;;9.61;77.55;97507.77;109901;1253;59783;-76
2022/05/21 04:14:34;;;;;;;11.10;7.00;;;;;;;9.72;77.82;97511.88;109868;1250;59674;-68
2022/05/21 04:17:13;;;;;;;7.40;5.60;;;;;;;9.88;77.77;97508.04;109890;1250;71610;-70
2022/05/21 04:19:49;;;;;;;7.70;6.80;;;;;;;10.03;77.63;97515.14;110043;1251;67979;-68
2022/05/21 04:22:26;;;;;;;10.40;6.00;;;;;;;10.14;77.12;97519.77;109928;1253;68676;-68
2022/05/21 04:25:06;;;;;;;10.30;7.30;;;;;;;10.28;77.69;97526.90;109933;1250;59680;-69
2022/05/21 04:27:49;;;;;;;7.90;5.80;;;;;;;10.42;77.71;97525.39;109852;1250;60069;-67
2022/05/21 04:30:28;;;;;;;10.10;7.10;;;;;;;10.61;77.07;97521.94;109818;1251;71474;-68
2022/05/21 04:33:06;;;;;;;9.00;7.50;;;;;;;10.80;76.12;97521.10;109924;1251;68620;-68
2022/05/21 04:38:44;;;;;;;11.70;7.90;;;;;;;11.12;75.14;97526.29;109897;1250;59665;-69
2022/05/21 04:41:26;;;;;;;11.60;8.60;;;;;;;11.23;75.60;97527.39;110196;1251;59713;-69
2022/05/21 04:44:07;;;;;;;9.70;7.00;;;;;;;11.41;75.83;97528.50;109960;1249;71428;-68
2022/05/21 04:46:44;;;;;;;12.50;6.60;;;;;;;11.63;76.11;97526.11;109835;1251;68812;-69
2022/05/21 04:49:21;;;;;;;11.80;7.40;;;;;;;11.87;74.70;97522.05;109878;1250;69404;-68
2022/05/21 04:51:58;;;;;;;9.30;7.00;;;;;;;12.10;73.48;97515.40;109934;1250;59688;-67
2022/05/21 04:54:36;;;;;;;11.20;7.60;;;;;;;12.27;72.36;97519.17;109951;1251;59751;-68
2022/05/21 04:57:12;;;;;;;10.10;6.80;;;;;;;12.37;71.64;97520.32;110084;1251;70754;-68
2022/05/21 04:59:51;;;;;;;11.80;8.20;;;;;;;12.51;71.35;97520.79;110051;1251;67600;-67
2022/05/21 05:02:28;;;;;;;7.80;6.80;;;;;;;12.64;70.83;97519.27;109927;1251;68641;-68
2022/05/21 05:05:06;;;;;;;10.80;7.00;;;;;;;12.87;70.84;97519.03;109896;1251;59706;-67
2022/05/21 05:07:47;;;;;;;8.10;5.50;;;;;;;13.15;69.40;97515.30;109759;1251;59714;-68
2022/05/21 05:10:22;;;;;;;9.30;6.40;;;;;;;13.52;68.19;97514.06;109826;1253;70451;-69
2022/05/21 05:12:58;;;;;;;7.70;5.50;;;;;;;13.85;67.97;97516.19;109979;1251;68262;-67
2022/05/21 05:15:48;;;;;;;7.50;4.30;;;;;;;14.32;68.44;97512.00;109783;1251;69302;-68
2022/05/21 05:18:30;;;;;;;7.60;4.50;;;;;;;14.76;66.14;97510.29;109862;1253;59746;-68
2022/05/21 05:21:10;;;;;;;6.50;4.40;;;;;;;15.11;63.91;97504.88;110041;1250;59713;-70
2022/05/21 05:23:47;;;;;;;6.60;4.80;;;;;;;15.36;62.41;97509.80;109956;1251;70552;-69
2022/05/21 05:26:29;;;;;;;7.40;5.00;;;;;;;15.64;60.82;97503.98;109917;1250;67568;-70
2022/05/21 05:29:28;;;;;;;7.60;4.20;;;;;;;15.89;59.85;97507.31;109730;1251;68912;-74
2022/05/21 05:32:07;;;;;;;5.90;3.60;;;;;;;16.07;57.23;97506.82;109724;1252;59761;-73
2022/05/21 05:35:04;;;;;;;4.20;3.20;;;;;;;16.29;55.05;97506.89;109824;1251;59698;-71
2022/05/21 05:37:40;;;;;;;6.40;3.50;;;;;;;16.57;56.64;97498.36;109963;1251;71458;-70
2022/05/21 05:40:21;;;;;;;5.50;3.70;;;;;;;16.79;55.61;97494.34;109966;1251;68411;-70
2022/05/21 05:42:55;;;;;;;5.80;3.20;;;;;;;16.91;54.74;97488.13;109827;1250;69532;-73
2022/05/21 05:45:35;;;;;;;6.70;4.20;;;;;;;17.08;54.82;97483.41;109858;1252;59807;-72
2022/05/21 05:48:10;;;;;;;6.50;3.50;;;;;;;17.17;54.09;97480.98;109887;1251;59176;-69
2022/05/21 05:50:46;;;;;;;4.90;3.30;;;;;;;17.29;53.63;97475.68;109965;1251;70938;-75
2022/05/21 05:53:19;;;;;;;6.70;3.80;;;;;;;17.39;53.79;97467.54;109532;1254;68271;-70
2022/05/21 05:55:51;;;;;;;4.50;3.40;;;;;;;17.48;53.08;97464.67;109749;1251;69408;-71
2022/05/21 06:01:20;;;;;;;4.80;4.00;;;;;;;17.90;52.83;97437.95;109780;1251;59681;-68
2022/05/21 06:03:56;;;;;;;5.30;3.80;;;;;;;18.00;52.71;97430.88;109775;1253;71808;-78
2022/05/21 06:06:26;;;;;;;5.80;3.80;;;;;;;18.01;50.95;97434.61;109924;1250;68493;-72
2022/05/21 06:08:57;;;;;;;4.80;3.90;;;;;;;18.07;51.40;97439.36;109894;1251;68288;-73
2022/05/21 06:11:25;;;;;;;5.40;3.30;;;;;;;18.23;51.77;97435.38;109642;1251;59737;-74
2022/05/21 06:13:55;;;;;;;4.10;2.60;;;;;;;18.46;51.68;97433.91;109894;1251;59657;-73
2022/05/21 06:16:26;;;;;;;5.70;3.50;;;;;;;18.71;51.09;97438.51;109928;1250;70391;-74
2022/05/21 06:18:57;;;;;;;5.90;3.30;;;;;;;18.83;50.51;97449.53;110003;1250;68636;-75
2022/05/21 06:21:26;;;;;;;4.80;3.40;;;;;;;18.75;51.11;97461.86;109977;1251;69480;-71
2022/05/21 06:23:55;;;;;;;;;;;;;;;18.67;51.25;97463.04;109983;1249;59671;-71
2022/05/21 06:26:25;;;;;;;5.10;3.40;;;;;;;18.97;50.85;97462.80;109558;1251;491378;-71
2022/05/21 06:28:54;;;;;;;5.70;2.90;;;;;;;19.32;49.44;97468.20;109910;1251;71398;-74
2022/05/21 06:31:22;;;;;;;5.40;3.00;;;;;;;19.63;48.33;97466.84;109855;1251;68706;-69
2022/05/21 06:33:51;;;;;;;4.50;2.90;;;;;;;19.75;44.70;97461.59;109931;1251;68694;-71
2022/05/21 06:36:22;;;;;;;5.80;3.00;;;;;;;19.97;43.92;97452.79;109954;1251;59706;-74
2022/05/21 06:38:52;;;;;;;5.40;3.50;;;;;;;20.48;45.06;97444.19;109964;1251;59632;-71
2022/05/21 06:41:21;;;;;;;4.80;3.20;;;;;;;20.95;44.82;97437.77;109784;1250;71148;-74
2022/05/21 06:43:51;;;;;;;5.30;3.70;;;;;;;21.35;42.16;97437.74;109888;1251;68699;-69
2022/05/21 06:46:20;;;;;;;6.10;3.80;;;;;;;21.50;42.24;97433.35;109870;1251;68954;-72
2022/05/21 06:48:49;;;;;;;4.70;2.70;;;;;;;21.67;42.11;97438.77;109961;1251;60204;-72
2022/05/21 06:51:18;;;;;;;5.00;2.90;;;;;;;21.98;39.98;97443.73;109992;1250;59695;-74
2022/05/21 06:53:47;;;;;;;3.60;2.20;;;;;;;21.97;38.73;97447.83;109983;1251;70955;-74
2022/05/21 06:56:16;;;;;;;3.30;2.30;;;;;;;22.04;36.62;97452.93;109745;1251;69013;-71
2022/05/21 06:58:46;;;;;;;;;;;;;;;22.04;37.78;97452.61;109902;1251;69775;-70
2022/05/21 07:01:15;;;;;;;;;;;;;;;22.07;38.01;97456.38;109894;1251;59712;-68
2022/05/21 07:03:44;;;;;;;4.30;2.30;;;;;;;22.17;36.89;97457.23;109910;1251;59689;-71
2022/05/21 07:09:00;;;;;;;4.10;2.10;;;;;;;22.32;36.82;97447.36;109864;1251;67805;-73
2022/05/21 07:11:30;;;;;;;3.40;2.30;;;;;;;22.17;36.08;97448.02;109875;1251;69434;-71
2022/05/21 07:13:59;;;;;;;3.20;2.10;;;;;;;22.17;35.84;97452.77;109864;1250;59779;-73
2022/05/21 07:16:28;;;;;;;3.70;2.00;;;;;;;21.98;35.25;97444.65;109907;1250;59707;-75
2022/05/21 07:18:57;;;;;;;3.70;2.20;;;;;;;21.88;34.80;97444.71;109799;1251;71415;-71
2022/05/21 07:21:26;;;;;;;3.90;2.00;;;;;;;22.03;33.97;97450.26;109910;1250;68551;-73
2022/05/21 07:23:55;;;;;;;3.90;2.50;;;;;;;21.93;34.14;97455.22;109914;1250;68661;-74
2022/05/21 07:26:23;;;;;;;2.80;2.00;;;;;;;21.60;35.03;97454.60;109871;1250;59674;-71
2022/05/21 07:28:53;;;;;;;5.30;2.30;;;;;;;21.70;35.35;97453.23;109821;1251;59749;-72
2022/05/21 07:31:22;;;;;;;4.20;1.80;;;;;;;21.79;35.69;97450.77;110000;1250;71396;-74
2022/05/21 07:33:51;;;;;;;4.00;2.00;;;;;;;21.92;35.30;97452.84;109946;1251;69098;-76
2022/05/21 07:36:20;;;;;;;3.70;1.90;;;;;;;22.07;35.10;97454.09;109976;1251;69579;-75
2022/05/21 07:38:48;;;;;;;5.90;2.00;;;;;;;22.27;34.75;97450.25;109954;1251;59710;-70
2022/05/21 07:41:18;;;;;;;3.90;1.80;;;;;;;22.09;34.21;97451.25;109848;1251;59690;-69
2022/05/21 07:43:46;;;;;;;3.60;2.30;;;;;;;21.55;35.48;97450.23;109915;1251;71540;-68
2022/05/21 07:46:15;;;;;;;3.20;2.20;;;;;;;20.99;35.35;97448.09;109960;1251;68678;-73
2022/05/21 07:48:44;;;;;;;3.20;2.20;;;;;;;20.93;35.90;97445.56;109961;1251;70083;-69
2022/05/21 07:51:13;;;;;;;3.10;2.20;;;;;;;20.90;37.20;97440.90;109966;1250;59685;-71
2022/05/21 07:53:42;;;;;;;4.60;2.60;;;;;;;20.86;37.01;97427.02;109887;1251;59698;-76
2022/05/21 07:56:17;;;;;;;3.50;2.00;;;;;;;20.82;37.38;97422.86;109841;1251;70689;-71
2022/05/21 07:58:47;;;;;;;4.30;2.60;;;;;;;20.78;37.72;97419.14;109845;1251;67667;-73
2022/05/21 08:01:17;;;;;;;4.50;2.30;;;;;;;21.26;38.08;97413.34;109837;1251;69296;-75
2022/05/21 08:03:47;;;;;;;3.00;2.20;;;;;;;21.91;36.50;97410.15;109839;1251;59797;-76
2022/05/21 08:06:16;;;;;;;3.60;2.00;;;;;;;22.65;35.52;97406.98;109865;1250;59702;-73
2022/05/21 08:08:45;;;;;;;;;;;;;;;23.24;34.52;97402.98;109823;1251;72311;-73
2022/05/21 08:11:14;;;;;;;;;;;;;;;23.59;33.70;97406.11;109876;1251;68670;-76
2022/05/21 08:13:44;;;;;;;3.80;2.70;;;;;;;23.93;33.50;97402.65;109791;1251;69583;-74
2022/05/21 08:16:14;;;;;;;3.50;2.50;;;;;;;23.93;33.23;97397.70;109768;1251;59753;-75
2022/05/21 08:18:43;;;;;;;4.00;2.50;;;;;;;24.27;33.04;97402.02;109885;1251;59735;-77
2022/05/21 08:21:12;;;;;;;3.50;2.30;;;;;;;24.83;32.82;97395.81;109843;1251;70804;-73
2022/05/21 08:29:16;;;;;;;4.20;2.50;;;;;;;25.64;31.57;97376.97;109839;1251;59747;-71
2022/05/21 08:31:45;;;;;;;4.10;2.10;;;;;;;25.62;30.97;97371.20;109748;1251;59708;-72
2022/05/21 08:34:14;;;;;;;4.60;2.30;;;;;;;25.96;30.75;97370.50;109676;1251;71551;-73
2022/05/21 08:36:43;;;;;;;4.30;2.00;;;;;;;26.00;30.08;97366.16;109879;1251;68779;-72
2022/05/21 08:39:12;;;;;;;3.30;2.00;;;;;;;25.65;30.31;97366.13;109867;1250;69534;-72
2022/05/21 08:41:51;;;;;;;3.70;2.10;;;;;;;25.68;30.11;97361.45;109967;1251;59760;-69
2022/05/21 08:44:43;;;;;;;4.60;2.90;;;;;;;25.67;30.43;97356.70;109886;1250;59708;-69
2022/05/21 08:47:29;;;;;;;4.30;2.60;;;;;;;25.63;30.49;97346.04;109818;1251;71646;-69
2022/05/21 08:50:15;;;;;;;3.10;2.40;;;;;;;26.36;30.72;97343.13;109980;1251;68675;-70
2022/05/21 08:52:57;;;;;;;4.40;2.10;;;;;;;26.85;28.79;97331.83;109971;1250;68631;-71
2022/05/21 08:55:37;;;;;;;3.00;2.40;;;;;;;27.50;28.58;97321.29;109934;1251;59671;-72
2022/05/21 08:58:35;;;;;;;3.50;2.60;;;;;;;27.99;28.31;97321.47;109897;1251;59677;-69
2022/05/21 09:01:04;;;;;;;3.40;2.10;;;;;;;28.03;28.49;97317.40;109903;1248;70872;-71
2022/05/21 09:03:33;;;;;;;2.90;2.00;;;;;;;28.45;28.15;97314.75;109730;1251;67744;-75
2022/05/21 09:06:28;;;;;;;3.50;2.10;;;;;;;28.65;27.47;97308.56;109723;1251;68886;-71
2022/05/21 09:09:12;;;;;;;4.20;2.40;;;;;;;28.28;27.33;97297.39;109810;1251;59696;-76
2022/05/21 09:11:48;;;;;;;3.40;2.60;;;;;;;28.31;27.77;97295.41;109950;1251;59633;-73
2022/05/21 09:14:34;;;;;;;6.70;2.60;;;;;;;28.52;26.93;97292.45;110031;1251;71572;-75
2022/05/21 09:17:12;;;;;;;3.60;2.20;;;;;;;28.76;26.86;97286.67;109946;1249;67804;-77
2022/05/21 09:19:55;;;;;;;4.40;2.60;;;;;;;28.81;26.71;97275.89;109940;1249;69531;-73
2022/05/21 09:22:31;;;;;;;3.40;2.50;;;;;;;29.03;27.16;97269.23;109774;1251;59689;-75
2022/05/21 09:25:23;;;;;;;3.30;2.30;;;;;;;29.11;27.11;97264.70;109877;1251;59692;-75
2022/05/21 09:28:06;;;;;;;4.00;2.70;;;;;;;29.24;26.89;97258.40;109912;1251;70870;-75
2022/05/21 09:30:41;;;;;;;4.70;3.30;;;;;;;29.59;25.47;97256.21;109962;1251;68710;-69
2022/05/21 09:33:26;;;;;;;8.70;5.90;;;;;;;29.53;26.18;97247.61;109810;1251;69437;-70
2022/05/21 09:35:59;;;;;;;5.10;3.20;;;;;;;29.53;25.60;97240.48;109893;1251;59696;-72
2022/05/21 09:38:49;;;;;;;4.50;3.50;;;;;;;29.57;25.79;97233.72;109989;1251;59758;-72
2022/05/21 09:41:37;;;;;;;7.50;5.20;;;;;;;29.64;26.13;97223.42;109978;1249;71228;-73
2022/05/21 09:47:15;;;;;;;5.90;3.00;;;;;;;29.87;25.91;97213.33;109966;1248;68679;-74
2022/05/21 09:49:59;;;;;;;6.10;2.90;;;;;;;29.81;26.10;97215.59;110011;1251;60094;-74
2022/05/21 09:52:31;;;;;;;3.90;2.40;;;;;;;29.76;26.14;97210.67;110008;1251;59634;-74
2022/05/21 09:55:02;;;;;;;3.80;2.30;;;;;;;29.94;25.92;97207.75;109962;1250;71670;-75
2022/05/21 09:57:35;;;;;;;2.90;2.30;;;;;;;29.79;26.19;97211.72;109985;1251;68008;-73
2022/05/21 10:00:22;;;;;;;4.10;2.40;;;;;;;29.97;26.50;97196.64;109939;1251;70167;-74
2022/05/21 10:02:55;;;;;;;3.80;2.30;;;;;;;30.24;26.31;97188.93;109866;1250;59690;-73
2022/05/21 10:05:29;;;;;;;4.10;2.60;;;;;;;30.20;26.11;97186.75;109910;1250;59719;-73
2022/05/21 10:10:59;;;;;;;5.90;2.20;;;;;;;30.05;26.01;97172.45;109832;1250;67741;-76
2022/05/21 10:13:38;;;;;;;4.30;2.50;;;;;;;30.05;26.34;97171.37;109767;1251;69406;-71
2022/05/21 10:16:26;;;;;;;;;;;;;;;30.02;26.20;97164.48;109906;1251;59624;-76
2022/05/21 10:19:07;;;;;;;3.80;2.70;;;;;;;29.83;26.20;97156.35;109908;1250;60071;-75
2022/05/21 10:21:55;;;;;;;4.00;2.80;;;;;;;29.71;26.79;97146.55;109913;1250;71231;-74
2022/05/21 10:24:36;;;;;;;4.80;2.90;;;;;;;29.49;26.90;97143.70;109918;1250;68427;-76
2022/05/21 10:27:29;;;;;;;4.40;2.70;;;;;;;29.35;27.58;97140.71;109926;1250;68562;-76
2022/05/21 10:30:13;;;;;;;4.20;3.10;;;;;;;29.11;27.84;97142.52;110095;1249;59647;-77
2022/05/21 10:33:03;;;;;;;3.40;2.60;;;;;;;28.91;28.45;97139.10;109947;1248;59679;-76
2022/05/21 10:35:56;;;;;;;4.60;3.00;;;;;;;28.95;28.30;97141.30;110180;1250;71497;-76
2022/05/21 10:38:54;;;;;;;2.90;2.60;;;;;;;28.75;28.92;97136.63;109846;1250;67866;-72
2022/05/21 10:41:37;;;;;;;3.60;2.80;;;;;;;28.58;29.25;97135.38;109869;1250;69312;-72
2022/05/21 10:44:36;;;;;;;3.90;3.00;;;;;;;28.73;29.30;97132.65;109898;1250;59744;-69
2022/05/21 10:47:20;;;;;;;4.20;3.10;;;;;;;28.73;28.93;97128.14;109935;1250;59695;-76
2022/05/21 10:50:16;;;;;;;3.20;2.60;;;;;;;28.76;29.28;97125.10;110150;1249;71578;-74
2022/05/21 10:53:06;;;;;;;4.10;2.30;;;;;;;29.03;29.71;97117.23;110158;1249;68173;-75
2022/05/21 10:56:06;;;;;;;3.50;3.10;;;;;;;29.03;29.41;97120.13;109917;1251;68914;-71
2022/05/21 10:59:20;;;;;;;3.80;2.80;;;;;;;28.43;29.39;97114.98;110141;1247;59748;-72
2022/05/21 11:01:51;;;;;;;5.80;2.70;;;;;;;28.56;30.03;97109.95;109899;1249;59694;-70
2022/05/21 11:04:38;;;;;;;3.70;3.30;;;;;;;28.78;29.53;97105.61;109973;1251;72283;-71
2022/05/21 11:07:35;;;;;;;3.60;2.80;;;;;;;29.04;29.07;97107.89;110144;1249;68639;-70
2022/05/21 11:10:27;;;;;;;3.50;3.10;;;;;;;29.54;28.30;97095.01;109919;1250;69495;-76
2022/05/21 11:13:20;;;;;;;3.40;2.90;;;;;;;29.96;27.93;97091.94;110150;1250;59704;-74
2022/05/21 11:16:08;;;;;;;3.80;2.70;;;;;;;30.06;27.82;97097.15;109963;1250;59767;-71
2022/05/21 11:18:58;;;;;;;4.70;3.00;;;;;;;30.06;27.37;97093.62;110156;1250;70895;-71
2022/05/21 11:21:39;;;;;;;3.70;2.60;;;;;;;29.98;27.71;97090.29;110156;1250;68611;-69
2022/05/21 11:24:24;;;;;;;3.60;2.70;;;;;;;30.22;28.06;97090.71;110130;1249;69689;-73
2022/05/21 11:27:02;;;;;;;4.40;2.90;;;;;;;30.57;27.37;97084.21;110119;1250;59776;-70
2022/05/21 11:29:45;;;;;;;3.40;3.10;;;;;;;30.12;27.93;97084.30;110186;1250;60126;-73
2022/05/21 11:38:33;;;;;;;3.60;2.60;;;;;;;29.80;28.24;97075.33;110116;1250;69415;-72
2022/05/21 11:47:12;;;;;;;5.50;2.80;;;;;;;29.18;28.69;97061.50;110163;1249;70835;-73
2022/05/21 11:50:03;;;;;;;5.10;2.80;;;;;;;29.34;28.76;97056.34;109670;1250;67935;-76
2022/05/21 11:52:31;;;;;;;3.50;2.80;;;;;;;29.28;28.75;97054.61;110144;1250;68648;-73
2022/05/21 11:55:18;;;;;;;3.80;2.60;;;;;;;29.08;28.98;97052.68;110161;1249;59685;-75
2022/05/21 11:57:59;;;;;;;3.20;2.90;;;;;;;29.29;28.55;97041.23;110185;1249;59739;-74
2022/05/21 12:00:28;;;;;;;3.60;3.00;;;;;;;29.47;27.68;97038.33;110165;1250;72219;-72
2022/05/21 12:03:06;;;;;;;4.70;2.90;;;;;;;29.27;28.19;97031.38;110143;1248;68542;-76
2022/05/21 12:05:37;;;;;;;5.10;3.20;;;;;;;29.33;28.84;97023.10;110126;1248;69698;-74
2022/05/21 12:08:29;;;;;;;3.60;2.80;;;;;;;29.42;28.68;97016.02;110150;1249;59719;-74
2022/05/21 12:11:10;;;;;;;4.10;3.00;;;;;;;29.69;28.15;97009.35;110132;1250;60079;-75
2022/05/21 12:13:58;;;;;;;6.10;3.10;;;;;;;29.64;28.70;97009.00;110140;1249;71505;-73
2022/05/21 12:16:29;;;;;;;3.70;2.70;;;;;;;29.73;28.15;97005.87;110132;1250;68536;-70
2022/05/21 12:19:00;;;;;;;4.10;3.20;;;;;;;29.27;27.96;97011.39;110129;1249;69218;-74
2022/05/21 12:21:36;;;;;;;5.10;3.30;;;;;;;28.83;28.72;97006.09;110162;1249;59738;-74
2022/05/21 12:24:07;;;;;;;3.30;2.50;;;;;;;28.66;29.71;97003.11;110148;1250;59675;-76
2022/05/21 12:26:42;;;;;;;3.50;2.70;;;;;;;28.33;29.08;97002.35;110158;1249;71551;-76
2022/05/21 12:29:25;;;;;;;4.50;2.70;;;;;;;28.24;29.57;97002.15;110109;1249;69464;-76
2022/05/21 12:31:57;;;;;;;3.60;2.90;;;;;;;28.25;28.71;96994.91;110137;1250;68511;-75
2022/05/21 12:35:03;;;;;;;3.50;3.10;;;;;;;28.01;29.02;96990.35;110172;1249;59684;-76
2022/05/21 12:37:39;;;;;;;3.70;3.00;;;;;;;27.60;29.99;96989.63;110134;1249;59748;-77
2022/05/21 12:40:13;;;;;;;3.60;2.80;;;;;;;27.52;30.57;96987.09;110011;1250;72149;-76
2022/05/21 12:42:54;;;;;;;6.60;2.70;;;;;;;27.33;30.92;96984.15;110174;1250;68605;-77
2022/05/21 12:45:36;;;;;;;6.00;2.80;;;;;;;27.48;30.96;96984.19;110154;1250;69500;-76
2022/05/21 12:48:17;;;;;;;4.40;3.30;;;;;;;27.39;30.30;96978.66;110181;1249;59689;-73
2022/05/21 12:50:59;;;;;;;4.10;3.30;;;;;;;27.08;31.41;96979.20;110147;1248;59691;-70
2022/05/21 12:53:42;;;;;;;3.30;2.30;;;;;;;27.01;31.60;96981.88;110159;1250;70601;-73
2022/05/21 12:56:25;;;;;;;4.40;2.90;;;;;;;27.11;31.72;96980.20;110122;1250;68198;-76
2022/05/21 12:59:08;;;;;;;3.70;2.40;;;;;;;27.06;32.22;96974.05;110170;1250;69504;-71
2022/05/21 13:02:16;;;;;;;3.50;2.60;;;;;;;27.11;32.25;96975.33;109941;1250;59757;-71